National Weather Service Raw Text Product

Displaying AFOS PIL: TAFOTM Received: 2018-01-12 05:29 UTC


321 
FTUS43 KDMX 120529
TAFOTM
TAF
KOTM 120529Z 1206/1306 33024G30KT P6SM BKN012
     FM121000 33018G24KT P6SM SKC
     FM121300 33015KT P6SM SKC
     FM130300 35014KT P6SM BKN090=